SBUR

Uberaba Airport

Airport
ICAO code
SBUR
IATA Code
UBA
Summary
ICAO Region
CARSAM
ICAO Territory
Location

Uberaba, Minas Gerais

Serving
Uberaba
Elevation
2655 ft
Coordinates
19° 45' 53" S , 47° 57' 58" W
KCC
Metar
SBUR 201800Z 33005KT 9000 NSC 29/06 Q1019

Uberaba–Mário de Almeida Franco Airport is the airport serving Uberaba, Brazil.

Climatology

Humid subtropical climate (Köppen climate classification Cwb)

Runways

Designator Length Width Surface Rops
17/35 1759 45 ASP No/No

Airport map

Aerial View

SKYbrary Partners:

Safety knowledge contributed by: